sensor_id;sensor_type;location;lat;lon;timestamp;P1;durP1;ratioP1;P2;durP2;ratioP2
22894;SDS011;11614;52.494;6.976;2023-03-31T00:02:18;5.30;;;1.80;;
22894;SDS011;11614;52.494;6.976;2023-03-31T00:04:46;5.73;;;2.33;;
22894;SDS011;11614;52.494;6.976;2023-03-31T00:07:16;6.53;;;2.37;;
22894;SDS011;11614;52.494;6.976;2023-03-31T00:09:46;7.60;;;2.50;;
22894;SDS011;11614;52.494;6.976;2023-03-31T00:12:12;4.53;;;1.90;;
22894;SDS011;11614;52.494;6.976;2023-03-31T00:14:39;5.67;;;2.07;;
22894;SDS011;11614;52.494;6.976;2023-03-31T00:17:06;5.43;;;1.87;;
22894;SDS011;11614;52.494;6.976;2023-03-31T00:19:32;7.63;;;2.30;;
22894;SDS011;11614;52.494;6.976;2023-03-31T00:21:58;6.57;;;2.50;;
22894;SDS011;11614;52.494;6.976;2023-03-31T00:24:26;6.47;;;2.20;;
22894;SDS011;11614;52.494;6.976;2023-03-31T00:26:59;7.27;;;2.40;;
22894;SDS011;11614;52.494;6.976;2023-03-31T00:29:26;5.37;;;2.03;;
22894;SDS011;11614;52.494;6.976;2023-03-31T00:31:52;5.70;;;1.70;;
22894;SDS011;11614;52.494;6.976;2023-03-31T00:34:19;7.00;;;2.07;;
22894;SDS011;11614;52.494;6.976;2023-03-31T00:36:45;5.90;;;1.93;;
22894;SDS011;11614;52.494;6.976;2023-03-31T00:39:15;8.17;;;2.73;;
22894;SDS011;11614;52.494;6.976;2023-03-31T00:41:42;5.97;;;1.57;;
22894;SDS011;11614;52.494;6.976;2023-03-31T00:46:39;6.00;;;2.13;;
22894;SDS011;11614;52.494;6.976;2023-03-31T00:49:07;8.73;;;2.67;;
22894;SDS011;11614;52.494;6.976;2023-03-31T00:51:40;7.40;;;2.10;;
22894;SDS011;11614;52.494;6.976;2023-03-31T00:54:07;4.77;;;1.77;;
22894;SDS011;11614;52.494;6.976;2023-03-31T00:56:35;8.57;;;2.37;;
22894;SDS011;11614;52.494;6.976;2023-03-31T00:59:04;6.33;;;1.87;;
22894;SDS011;11614;52.494;6.976;2023-03-31T01:01:32;5.50;;;2.10;;
22894;SDS011;11614;52.494;6.976;2023-03-31T01:04:04;7.53;;;2.30;;
22894;SDS011;11614;52.494;6.976;2023-03-31T01:06:33;7.53;;;2.30;;
22894;SDS011;11614;52.494;6.976;2023-03-31T01:09:10;6.83;;;2.10;;
22894;SDS011;11614;52.494;6.976;2023-03-31T01:11:38;5.33;;;2.10;;
22894;SDS011;11614;52.494;6.976;2023-03-31T01:14:04;9.17;;;2.40;;
22894;SDS011;11614;52.494;6.976;2023-03-31T01:16:30;4.00;;;1.90;;
22894;SDS011;11614;52.494;6.976;2023-03-31T01:18:57;6.47;;;2.17;;
22894;SDS011;11614;52.494;6.976;2023-03-31T01:22:29;6.20;;;1.60;;
22894;SDS011;11614;52.494;6.976;2023-03-31T01:24:38;5.47;;;1.90;;
22894;SDS011;11614;52.494;6.976;2023-03-31T01:38:30;4.30;;;1.70;;
22894;SDS011;11614;52.494;6.976;2023-03-31T01:47:24;6.23;;;1.53;;
22894;SDS011;11614;52.494;6.976;2023-03-31T01:50:01;4.57;;;1.53;;
22894;SDS011;11614;52.494;6.976;2023-03-31T01:52:44;4.57;;;1.53;;
22894;SDS011;11614;52.494;6.976;2023-03-31T01:55:21;5.17;;;1.50;;
22894;SDS011;11614;52.494;6.976;2023-03-31T01:57:52;8.23;;;2.13;;
22894;SDS011;11614;52.494;6.976;2023-03-31T02:00:27;4.30;;;1.87;;
22894;SDS011;11614;52.494;6.976;2023-03-31T02:03:00;7.47;;;2.63;;
22894;SDS011;11614;52.494;6.976;2023-03-31T02:05:36;6.13;;;1.97;;
22894;SDS011;11614;52.494;6.976;2023-03-31T02:10:33;4.43;;;1.60;;
22894;SDS011;11614;52.494;6.976;2023-03-31T02:13:00;8.13;;;1.80;;
22894;SDS011;11614;52.494;6.976;2023-03-31T02:15:28;6.37;;;1.60;;
22894;SDS011;11614;52.494;6.976;2023-03-31T02:17:57;5.53;;;1.43;;
22894;SDS011;11614;52.494;6.976;2023-03-31T02:20:24;4.40;;;1.53;;
22894;SDS011;11614;52.494;6.976;2023-03-31T02:22:53;9.70;;;1.73;;
22894;SDS011;11614;52.494;6.976;2023-03-31T02:25:28;7.07;;;1.90;;
22894;SDS011;11614;52.494;6.976;2023-03-31T02:28:00;4.83;;;1.30;;
22894;SDS011;11614;52.494;6.976;2023-03-31T02:30:35;3.90;;;1.50;;
22894;SDS011;11614;52.494;6.976;2023-03-31T02:33:12;4.27;;;1.47;;
22894;SDS011;11614;52.494;6.976;2023-03-31T02:35:40;4.47;;;1.70;;
22894;SDS011;11614;52.494;6.976;2023-03-31T02:38:06;4.27;;;1.17;;
22894;SDS011;11614;52.494;6.976;2023-03-31T02:40:33;4.23;;;1.50;;
22894;SDS011;11614;52.494;6.976;2023-03-31T02:43:00;7.53;;;1.50;;
22894;SDS011;11614;52.494;6.976;2023-03-31T02:45:45;3.33;;;1.20;;
22894;SDS011;11614;52.494;6.976;2023-03-31T02:48:17;3.27;;;1.07;;
22894;SDS011;11614;52.494;6.976;2023-03-31T02:51:12;6.07;;;1.70;;
22894;SDS011;11614;52.494;6.976;2023-03-31T03:11:06;5.37;;;1.90;;
22894;SDS011;11614;52.494;6.976;2023-03-31T03:16:46;4.10;;;1.77;;
22894;SDS011;11614;52.494;6.976;2023-03-31T03:19:18;3.87;;;1.93;;
22894;SDS011;11614;52.494;6.976;2023-03-31T03:21:46;5.43;;;1.47;;
22894;SDS011;11614;52.494;6.976;2023-03-31T03:24:15;5.67;;;1.50;;
22894;SDS011;11614;52.494;6.976;2023-03-31T03:26:42;4.50;;;1.50;;
22894;SDS011;11614;52.494;6.976;2023-03-31T03:29:09;8.03;;;2.33;;
22894;SDS011;11614;52.494;6.976;2023-03-31T03:31:37;4.53;;;1.37;;
22894;SDS011;11614;52.494;6.976;2023-03-31T03:34:03;5.37;;;1.47;;
22894;SDS011;11614;52.494;6.976;2023-03-31T03:36:31;2.40;;;1.07;;
22894;SDS011;11614;52.494;6.976;2023-03-31T03:38:57;2.17;;;1.23;;
22894;SDS011;11614;52.494;6.976;2023-03-31T03:41:23;5.33;;;1.73;;
22894;SDS011;11614;52.494;6.976;2023-03-31T03:43:49;4.33;;;1.50;;
22894;SDS011;11614;52.494;6.976;2023-03-31T03:46:15;2.67;;;1.20;;
22894;SDS011;11614;52.494;6.976;2023-03-31T03:48:41;4.77;;;1.33;;
22894;SDS011;11614;52.494;6.976;2023-03-31T03:51:07;4.90;;;1.13;;
22894;SDS011;11614;52.494;6.976;2023-03-31T03:53:32;4.43;;;1.40;;
22894;SDS011;11614;52.494;6.976;2023-03-31T03:55:58;5.13;;;1.33;;
22894;SDS011;11614;52.494;6.976;2023-03-31T03:58:25;3.67;;;1.53;;
22894;SDS011;11614;52.494;6.976;2023-03-31T04:00:51;1.77;;;0.83;;
22894;SDS011;11614;52.494;6.976;2023-03-31T04:03:17;4.33;;;1.17;;
22894;SDS011;11614;52.494;6.976;2023-03-31T04:05:43;4.20;;;1.30;;
22894;SDS011;11614;52.494;6.976;2023-03-31T04:08:13;3.30;;;1.27;;
22894;SDS011;11614;52.494;6.976;2023-03-31T04:10:46;2.77;;;1.17;;
22894;SDS011;11614;52.494;6.976;2023-03-31T04:13:13;3.20;;;1.30;;
22894;SDS011;11614;52.494;6.976;2023-03-31T04:15:39;2.67;;;1.47;;
22894;SDS011;11614;52.494;6.976;2023-03-31T04:18:05;4.97;;;1.33;;
22894;SDS011;11614;52.494;6.976;2023-03-31T04:20:34;2.83;;;0.97;;
22894;SDS011;11614;52.494;6.976;2023-03-31T04:23:01;3.50;;;1.50;;
22894;SDS011;11614;52.494;6.976;2023-03-31T04:25:29;4.50;;;1.60;;
22894;SDS011;11614;52.494;6.976;2023-03-31T04:27:55;5.93;;;1.80;;
22894;SDS011;11614;52.494;6.976;2023-03-31T04:30:22;3.03;;;1.20;;
22894;SDS011;11614;52.494;6.976;2023-03-31T04:32:49;3.03;;;1.40;;
22894;SDS011;11614;52.494;6.976;2023-03-31T04:35:15;6.37;;;1.67;;
22894;SDS011;11614;52.494;6.976;2023-03-31T04:37:42;4.27;;;2.10;;
22894;SDS011;11614;52.494;6.976;2023-03-31T04:40:08;3.57;;;1.80;;
22894;SDS011;11614;52.494;6.976;2023-03-31T04:42:34;2.60;;;1.27;;
22894;SDS011;11614;52.494;6.976;2023-03-31T04:45:01;4.97;;;1.97;;
22894;SDS011;11614;52.494;6.976;2023-03-31T04:47:27;4.87;;;2.10;;
22894;SDS011;11614;52.494;6.976;2023-03-31T04:49:53;5.10;;;2.57;;
22894;SDS011;11614;52.494;6.976;2023-03-31T04:52:19;5.47;;;2.63;;
22894;SDS011;11614;52.494;6.976;2023-03-31T04:54:45;4.90;;;2.43;;
22894;SDS011;11614;52.494;6.976;2023-03-31T04:57:11;4.80;;;2.47;;
22894;SDS011;11614;52.494;6.976;2023-03-31T04:59:37;5.93;;;2.30;;
22894;SDS011;11614;52.494;6.976;2023-03-31T05:02:03;5.83;;;2.40;;
22894;SDS011;11614;52.494;6.976;2023-03-31T05:04:29;8.30;;;2.63;;
22894;SDS011;11614;52.494;6.976;2023-03-31T05:06:55;5.77;;;2.57;;
22894;SDS011;11614;52.494;6.976;2023-03-31T05:09:21;7.67;;;3.00;;
22894;SDS011;11614;52.494;6.976;2023-03-31T05:11:48;7.40;;;3.33;;
22894;SDS011;11614;52.494;6.976;2023-03-31T05:14:14;5.40;;;2.43;;
22894;SDS011;11614;52.494;6.976;2023-03-31T05:16:40;7.73;;;2.00;;
22894;SDS011;11614;52.494;6.976;2023-03-31T05:19:07;5.83;;;2.37;;
22894;SDS011;11614;52.494;6.976;2023-03-31T05:21:33;7.30;;;2.50;;
22894;SDS011;11614;52.494;6.976;2023-03-31T05:23:59;5.60;;;2.53;;
22894;SDS011;11614;52.494;6.976;2023-03-31T05:26:25;7.77;;;2.73;;
22894;SDS011;11614;52.494;6.976;2023-03-31T05:28:51;5.27;;;2.50;;
22894;SDS011;11614;52.494;6.976;2023-03-31T05:31:18;5.07;;;2.50;;
22894;SDS011;11614;52.494;6.976;2023-03-31T05:33:44;5.60;;;2.17;;
22894;SDS011;11614;52.494;6.976;2023-03-31T05:36:11;5.17;;;2.40;;
22894;SDS011;11614;52.494;6.976;2023-03-31T05:38:38;4.27;;;2.23;;
22894;SDS011;11614;52.494;6.976;2023-03-31T05:41:04;4.33;;;2.40;;
22894;SDS011;11614;52.494;6.976;2023-03-31T05:43:31;3.93;;;1.97;;
22894;SDS011;11614;52.494;6.976;2023-03-31T05:45:57;4.70;;;2.67;;
22894;SDS011;11614;52.494;6.976;2023-03-31T05:48:23;5.67;;;2.67;;
22894;SDS011;11614;52.494;6.976;2023-03-31T05:50:49;6.03;;;3.10;;
22894;SDS011;11614;52.494;6.976;2023-03-31T05:53:15;5.23;;;2.50;;
22894;SDS011;11614;52.494;6.976;2023-03-31T05:55:41;4.30;;;2.63;;
22894;SDS011;11614;52.494;6.976;2023-03-31T05:58:07;5.53;;;2.63;;
22894;SDS011;11614;52.494;6.976;2023-03-31T06:00:34;7.03;;;2.50;;
22894;SDS011;11614;52.494;6.976;2023-03-31T06:03:01;5.03;;;2.67;;
22894;SDS011;11614;52.494;6.976;2023-03-31T06:05:27;4.83;;;2.30;;
22894;SDS011;11614;52.494;6.976;2023-03-31T06:07:55;11.07;;;2.70;;
22894;SDS011;11614;52.494;6.976;2023-03-31T06:10:21;4.33;;;2.47;;
22894;SDS011;11614;52.494;6.976;2023-03-31T06:12:47;5.97;;;2.83;;
22894;SDS011;11614;52.494;6.976;2023-03-31T06:15:13;6.93;;;2.50;;
22894;SDS011;11614;52.494;6.976;2023-03-31T06:17:39;5.67;;;2.70;;
22894;SDS011;11614;52.494;6.976;2023-03-31T06:20:05;4.43;;;2.50;;
22894;SDS011;11614;52.494;6.976;2023-03-31T06:22:32;7.57;;;2.17;;
22894;SDS011;11614;52.494;6.976;2023-03-31T06:24:58;4.37;;;2.00;;
22894;SDS011;11614;52.494;6.976;2023-03-31T06:27:24;6.60;;;3.03;;
22894;SDS011;11614;52.494;6.976;2023-03-31T06:29:50;5.37;;;2.20;;
22894;SDS011;11614;52.494;6.976;2023-03-31T06:32:16;7.20;;;2.43;;
22894;SDS011;11614;52.494;6.976;2023-03-31T06:34:42;4.87;;;2.63;;
22894;SDS011;11614;52.494;6.976;2023-03-31T06:37:08;5.40;;;2.73;;
22894;SDS011;11614;52.494;6.976;2023-03-31T06:39:33;8.17;;;2.73;;
22894;SDS011;11614;52.494;6.976;2023-03-31T06:41:59;6.03;;;2.37;;
22894;SDS011;11614;52.494;6.976;2023-03-31T06:44:25;4.13;;;2.10;;
22894;SDS011;11614;52.494;6.976;2023-03-31T06:46:51;8.63;;;2.90;;
22894;SDS011;11614;52.494;6.976;2023-03-31T06:49:17;6.07;;;2.40;;
22894;SDS011;11614;52.494;6.976;2023-03-31T06:51:43;5.63;;;2.70;;
22894;SDS011;11614;52.494;6.976;2023-03-31T06:54:09;6.07;;;2.80;;
22894;SDS011;11614;52.494;6.976;2023-03-31T06:56:35;5.83;;;2.57;;
22894;SDS011;11614;52.494;6.976;2023-03-31T06:59:01;7.80;;;2.47;;
22894;SDS011;11614;52.494;6.976;2023-03-31T07:01:27;5.83;;;2.57;;
22894;SDS011;11614;52.494;6.976;2023-03-31T07:03:55;4.73;;;2.40;;
22894;SDS011;11614;52.494;6.976;2023-03-31T07:06:21;7.07;;;2.80;;
22894;SDS011;11614;52.494;6.976;2023-03-31T07:08:47;6.30;;;3.37;;
22894;SDS011;11614;52.494;6.976;2023-03-31T07:11:13;7.53;;;3.17;;
22894;SDS011;11614;52.494;6.976;2023-03-31T07:13:40;8.47;;;3.63;;
22894;SDS011;11614;52.494;6.976;2023-03-31T07:16:06;7.77;;;3.50;;
22894;SDS011;11614;52.494;6.976;2023-03-31T07:18:32;8.00;;;3.50;;
22894;SDS011;11614;52.494;6.976;2023-03-31T07:21:00;7.80;;;3.80;;
22894;SDS011;11614;52.494;6.976;2023-03-31T07:23:26;9.93;;;4.13;;
22894;SDS011;11614;52.494;6.976;2023-03-31T07:25:52;9.60;;;3.40;;
22894;SDS011;11614;52.494;6.976;2023-03-31T07:28:18;7.87;;;4.00;;
22894;SDS011;11614;52.494;6.976;2023-03-31T07:30:44;12.53;;;5.10;;
22894;SDS011;11614;52.494;6.976;2023-03-31T07:33:10;7.20;;;3.93;;
22894;SDS011;11614;52.494;6.976;2023-03-31T07:35:37;7.63;;;4.07;;
22894;SDS011;11614;52.494;6.976;2023-03-31T07:38:04;7.13;;;4.10;;
22894;SDS011;11614;52.494;6.976;2023-03-31T07:40:30;8.27;;;4.13;;
22894;SDS011;11614;52.494;6.976;2023-03-31T07:42:56;8.70;;;4.50;;
22894;SDS011;11614;52.494;6.976;2023-03-31T07:45:22;8.40;;;3.90;;
22894;SDS011;11614;52.494;6.976;2023-03-31T07:47:49;6.80;;;3.90;;
22894;SDS011;11614;52.494;6.976;2023-03-31T07:50:15;6.17;;;4.30;;
22894;SDS011;11614;52.494;6.976;2023-03-31T07:52:41;7.13;;;3.63;;
22894;SDS011;11614;52.494;6.976;2023-03-31T07:55:08;6.83;;;3.60;;
22894;SDS011;11614;52.494;6.976;2023-03-31T07:57:35;8.80;;;4.00;;
22894;SDS011;11614;52.494;6.976;2023-03-31T08:00:02;7.43;;;3.50;;
22894;SDS011;11614;52.494;6.976;2023-03-31T08:02:33;6.33;;;3.17;;
22894;SDS011;11614;52.494;6.976;2023-03-31T08:05:00;8.47;;;3.57;;
22894;SDS011;11614;52.494;6.976;2023-03-31T08:07:26;5.40;;;2.57;;
22894;SDS011;11614;52.494;6.976;2023-03-31T08:09:55;7.87;;;2.80;;
22894;SDS011;11614;52.494;6.976;2023-03-31T08:12:21;5.97;;;2.30;;
22894;SDS011;11614;52.494;6.976;2023-03-31T08:14:47;5.03;;;2.43;;
22894;SDS011;11614;52.494;6.976;2023-03-31T08:17:13;3.23;;;1.63;;
22894;SDS011;11614;52.494;6.976;2023-03-31T08:19:39;8.07;;;1.93;;
22894;SDS011;11614;52.494;6.976;2023-03-31T08:22:05;5.20;;;1.77;;
22894;SDS011;11614;52.494;6.976;2023-03-31T08:24:31;3.37;;;1.47;;
22894;SDS011;11614;52.494;6.976;2023-03-31T08:26:57;4.03;;;1.60;;
22894;SDS011;11614;52.494;6.976;2023-03-31T08:29:23;3.73;;;1.30;;
22894;SDS011;11614;52.494;6.976;2023-03-31T08:31:48;4.27;;;1.67;;
22894;SDS011;11614;52.494;6.976;2023-03-31T08:34:14;3.40;;;1.50;;
22894;SDS011;11614;52.494;6.976;2023-03-31T08:36:40;4.50;;;1.73;;
22894;SDS011;11614;52.494;6.976;2023-03-31T08:39:06;1.87;;;1.30;;
22894;SDS011;11614;52.494;6.976;2023-03-31T08:41:35;2.73;;;1.10;;
22894;SDS011;11614;52.494;6.976;2023-03-31T08:44:10;3.50;;;1.53;;
22894;SDS011;11614;52.494;6.976;2023-03-31T08:46:38;6.70;;;1.20;;
22894;SDS011;11614;52.494;6.976;2023-03-31T08:49:04;3.17;;;1.07;;
22894;SDS011;11614;52.494;6.976;2023-03-31T08:51:38;2.77;;;0.97;;
22894;SDS011;11614;52.494;6.976;2023-03-31T08:55:09;3.27;;;1.23;;
22894;SDS011;11614;52.494;6.976;2023-03-31T08:57:02;2.83;;;0.80;;
22894;SDS011;11614;52.494;6.976;2023-03-31T08:59:36;2.37;;;1.10;;
22894;SDS011;11614;52.494;6.976;2023-03-31T09:05:04;2.70;;;1.00;;
22894;SDS011;11614;52.494;6.976;2023-03-31T09:10:21;1.53;;;0.80;;
22894;SDS011;11614;52.494;6.976;2023-03-31T09:15:39;4.47;;;1.00;;
22894;SDS011;11614;52.494;6.976;2023-03-31T09:18:43;2.20;;;0.87;;
22894;SDS011;11614;52.494;6.976;2023-03-31T09:23:47;1.60;;;0.50;;
22894;SDS011;11614;52.494;6.976;2023-03-31T09:26:28;1.67;;;0.50;;
22894;SDS011;11614;52.494;6.976;2023-03-31T09:29:06;3.20;;;0.60;;
22894;SDS011;11614;52.494;6.976;2023-03-31T09:31:40;2.70;;;0.80;;
22894;SDS011;11614;52.494;6.976;2023-03-31T09:34:11;3.80;;;0.70;;
22894;SDS011;11614;52.494;6.976;2023-03-31T09:36:39;2.33;;;0.70;;
22894;SDS011;11614;52.494;6.976;2023-03-31T09:39:07;2.93;;;0.70;;
22894;SDS011;11614;52.494;6.976;2023-03-31T09:41:42;1.83;;;0.60;;
22894;SDS011;11614;52.494;6.976;2023-03-31T09:44:21;1.90;;;0.53;;
22894;SDS011;11614;52.494;6.976;2023-03-31T09:46:47;1.93;;;0.40;;
22894;SDS011;11614;52.494;6.976;2023-03-31T09:49:17;2.77;;;0.60;;
22894;SDS011;11614;52.494;6.976;2023-03-31T09:51:47;2.00;;;0.67;;
22894;SDS011;11614;52.494;6.976;2023-03-31T09:54:26;2.53;;;0.40;;
22894;SDS011;11614;52.494;6.976;2023-03-31T09:56:58;1.53;;;0.67;;
22894;SDS011;11614;52.494;6.976;2023-03-31T09:59:32;1.20;;;0.43;;
22894;SDS011;11614;52.494;6.976;2023-03-31T10:02:00;2.13;;;0.60;;
22894;SDS011;11614;52.494;6.976;2023-03-31T10:04:29;3.13;;;0.40;;
22894;SDS011;11614;52.494;6.976;2023-03-31T10:06:58;3.13;;;0.80;;
22894;SDS011;11614;52.494;6.976;2023-03-31T10:09:28;1.90;;;0.67;;
22894;SDS011;11614;52.494;6.976;2023-03-31T10:11:57;4.30;;;0.77;;
22894;SDS011;11614;52.494;6.976;2023-03-31T10:14:40;2.73;;;0.70;;
22894;SDS011;11614;52.494;6.976;2023-03-31T10:17:12;2.00;;;0.63;;
22894;SDS011;11614;52.494;6.976;2023-03-31T10:19:42;2.00;;;0.87;;
22894;SDS011;11614;52.494;6.976;2023-03-31T10:24:51;1.60;;;0.50;;
22894;SDS011;11614;52.494;6.976;2023-03-31T10:27:24;2.20;;;0.60;;
22894;SDS011;11614;52.494;6.976;2023-03-31T10:29:53;2.20;;;0.67;;
22894;SDS011;11614;52.494;6.976;2023-03-31T10:32:29;2.40;;;0.67;;
22894;SDS011;11614;52.494;6.976;2023-03-31T10:34:57;1.63;;;0.57;;
22894;SDS011;11614;52.494;6.976;2023-03-31T10:37:27;1.37;;;0.50;;
22894;SDS011;11614;52.494;6.976;2023-03-31T10:40:08;1.73;;;0.67;;
22894;SDS011;11614;52.494;6.976;2023-03-31T10:42:45;1.63;;;0.70;;
22894;SDS011;11614;52.494;6.976;2023-03-31T10:45:24;1.53;;;0.40;;
22894;SDS011;11614;52.494;6.976;2023-03-31T10:47:53;1.60;;;0.50;;
22894;SDS011;11614;52.494;6.976;2023-03-31T10:50:41;1.90;;;0.63;;
22894;SDS011;11614;52.494;6.976;2023-03-31T10:53:11;0.93;;;0.33;;
22894;SDS011;11614;52.494;6.976;2023-03-31T10:55:40;1.20;;;0.30;;
22894;SDS011;11614;52.494;6.976;2023-03-31T10:58:16;1.03;;;0.57;;
22894;SDS011;11614;52.494;6.976;2023-03-31T11:00:53;2.10;;;0.67;;
22894;SDS011;11614;52.494;6.976;2023-03-31T11:06:32;1.10;;;0.50;;
22894;SDS011;11614;52.494;6.976;2023-03-31T11:09:20;2.30;;;0.60;;
22894;SDS011;11614;52.494;6.976;2023-03-31T11:12:00;4.23;;;1.00;;
22894;SDS011;11614;52.494;6.976;2023-03-31T11:20:20;1.57;;;0.80;;
22894;SDS011;11614;52.494;6.976;2023-03-31T11:25:59;5.33;;;1.17;;
22894;SDS011;11614;52.494;6.976;2023-03-31T11:28:42;2.03;;;1.00;;
22894;SDS011;11614;52.494;6.976;2023-03-31T11:31:32;4.07;;;1.00;;
22894;SDS011;11614;52.494;6.976;2023-03-31T11:34:54;3.43;;;1.50;;
22894;SDS011;11614;52.494;6.976;2023-03-31T11:42:28;2.63;;;1.70;;
22894;SDS011;11614;52.494;6.976;2023-03-31T11:48:25;2.83;;;1.67;;
22894;SDS011;11614;52.494;6.976;2023-03-31T11:51:06;6.33;;;1.93;;
22894;SDS011;11614;52.494;6.976;2023-03-31T11:53:38;7.53;;;2.60;;
22894;SDS011;11614;52.494;6.976;2023-03-31T11:56:07;8.47;;;2.27;;
22894;SDS011;11614;52.494;6.976;2023-03-31T12:04:00;6.37;;;2.07;;
22894;SDS011;11614;52.494;6.976;2023-03-31T12:06:31;10.00;;;2.83;;
22894;SDS011;11614;52.494;6.976;2023-03-31T12:09:06;7.30;;;2.63;;
22894;SDS011;11614;52.494;6.976;2023-03-31T12:11:55;6.97;;;2.50;;
22894;SDS011;11614;52.494;6.976;2023-03-31T12:14:42;6.60;;;2.20;;
22894;SDS011;11614;52.494;6.976;2023-03-31T12:17:11;4.87;;;1.80;;
22894;SDS011;11614;52.494;6.976;2023-03-31T12:24:50;6.05;;;2.40;;
22894;SDS011;11614;52.494;6.976;2023-03-31T12:29:55;5.20;;;1.98;;
22894;SDS011;11614;52.494;6.976;2023-03-31T12:32:25;7.38;;;2.75;;
22894;SDS011;11614;52.494;6.976;2023-03-31T12:40:21;5.18;;;1.77;;
22894;SDS011;11614;52.494;6.976;2023-03-31T12:45:27;6.37;;;2.03;;
22894;SDS011;11614;52.494;6.976;2023-03-31T12:55:42;4.43;;;1.93;;
22894;SDS011;11614;52.494;6.976;2023-03-31T12:58:43;8.30;;;1.70;;
22894;SDS011;11614;52.494;6.976;2023-03-31T13:06:01;6.30;;;2.13;;
22894;SDS011;11614;52.494;6.976;2023-03-31T13:11:12;6.87;;;1.77;;
22894;SDS011;11614;52.494;6.976;2023-03-31T13:14:00;3.33;;;1.37;;
22894;SDS011;11614;52.494;6.976;2023-03-31T13:16:26;5.67;;;1.60;;
22894;SDS011;11614;52.494;6.976;2023-03-31T13:18:52;4.27;;;1.60;;
22894;SDS011;11614;52.494;6.976;2023-03-31T13:21:18;5.57;;;1.70;;
22894;SDS011;11614;52.494;6.976;2023-03-31T13:23:45;7.13;;;2.03;;
22894;SDS011;11614;52.494;6.976;2023-03-31T13:29:09;5.37;;;1.63;;
22894;SDS011;11614;52.494;6.976;2023-03-31T13:34:26;6.83;;;1.90;;
22894;SDS011;11614;52.494;6.976;2023-03-31T13:37:12;5.23;;;1.70;;
22894;SDS011;11614;52.494;6.976;2023-03-31T13:50:49;5.70;;;1.47;;
22894;SDS011;11614;52.494;6.976;2023-03-31T13:59:28;4.93;;;1.40;;
22894;SDS011;11614;52.494;6.976;2023-03-31T14:01:58;3.20;;;1.23;;
22894;SDS011;11614;52.494;6.976;2023-03-31T14:07:14;4.87;;;1.57;;
22894;SDS011;11614;52.494;6.976;2023-03-31T14:09:45;6.77;;;2.43;;
22894;SDS011;11614;52.494;6.976;2023-03-31T14:12:33;4.33;;;1.90;;
22894;SDS011;11614;52.494;6.976;2023-03-31T14:15:00;4.60;;;1.70;;
22894;SDS011;11614;52.494;6.976;2023-03-31T14:17:36;3.70;;;1.37;;
22894;SDS011;11614;52.494;6.976;2023-03-31T14:31:05;4.03;;;1.70;;
22894;SDS011;11614;52.494;6.976;2023-03-31T14:39:30;4.93;;;1.60;;
22894;SDS011;11614;52.494;6.976;2023-03-31T14:42:02;4.07;;;1.50;;
22894;SDS011;11614;52.494;6.976;2023-03-31T14:44:31;5.00;;;1.73;;
22894;SDS011;11614;52.494;6.976;2023-03-31T14:46:58;6.60;;;1.70;;
22894;SDS011;11614;52.494;6.976;2023-03-31T14:49:34;7.47;;;1.63;;
22894;SDS011;11614;52.494;6.976;2023-03-31T14:52:03;4.57;;;1.43;;
22894;SDS011;11614;52.494;6.976;2023-03-31T14:54:38;4.40;;;1.30;;
22894;SDS011;11614;52.494;6.976;2023-03-31T14:57:05;5.13;;;1.20;;
22894;SDS011;11614;52.494;6.976;2023-03-31T14:59:31;4.77;;;1.30;;
22894;SDS011;11614;52.494;6.976;2023-03-31T15:02:00;5.17;;;1.27;;
22894;SDS011;11614;52.494;6.976;2023-03-31T15:04:27;6.23;;;1.60;;
22894;SDS011;11614;52.494;6.976;2023-03-31T15:06:54;5.47;;;1.60;;
22894;SDS011;11614;52.494;6.976;2023-03-31T15:09:27;4.20;;;1.10;;
22894;SDS011;11614;52.494;6.976;2023-03-31T15:11:58;4.77;;;1.50;;
22894;SDS011;11614;52.494;6.976;2023-03-31T15:14:32;5.50;;;1.67;;
22894;SDS011;11614;52.494;6.976;2023-03-31T15:17:01;4.17;;;1.30;;
22894;SDS011;11614;52.494;6.976;2023-03-31T15:19:31;5.73;;;1.47;;
22894;SDS011;11614;52.494;6.976;2023-03-31T15:22:07;4.20;;;1.40;;
22894;SDS011;11614;52.494;6.976;2023-03-31T15:24:42;4.13;;;1.13;;
22894;SDS011;11614;52.494;6.976;2023-03-31T15:29:36;4.03;;;0.93;;
22894;SDS011;11614;52.494;6.976;2023-03-31T15:32:11;3.27;;;1.10;;
22894;SDS011;11614;52.494;6.976;2023-03-31T15:34:38;3.93;;;1.10;;
22894;SDS011;11614;52.494;6.976;2023-03-31T15:37:07;5.40;;;1.00;;
22894;SDS011;11614;52.494;6.976;2023-03-31T15:39:34;4.57;;;1.20;;
22894;SDS011;11614;52.494;6.976;2023-03-31T15:42:02;2.40;;;0.67;;
22894;SDS011;11614;52.494;6.976;2023-03-31T15:46:59;3.73;;;1.13;;
22894;SDS011;11614;52.494;6.976;2023-03-31T15:49:26;3.33;;;1.03;;
22894;SDS011;11614;52.494;6.976;2023-03-31T15:51:53;5.37;;;1.30;;
22894;SDS011;11614;52.494;6.976;2023-03-31T15:57:06;4.57;;;1.60;;
22894;SDS011;11614;52.494;6.976;2023-03-31T16:00:44;12.20;;;5.30;;
22894;SDS011;11614;52.494;6.976;2023-03-31T16:36:47;3.73;;;0.90;;
22894;SDS011;11614;52.494;6.976;2023-03-31T16:39:13;4.20;;;0.87;;
22894;SDS011;11614;52.494;6.976;2023-03-31T16:41:39;3.80;;;1.00;;
22894;SDS011;11614;52.494;6.976;2023-03-31T16:44:05;5.80;;;0.90;;
22894;SDS011;11614;52.494;6.976;2023-03-31T16:46:31;2.37;;;0.83;;
22894;SDS011;11614;52.494;6.976;2023-03-31T16:48:57;3.30;;;1.00;;
22894;SDS011;11614;52.494;6.976;2023-03-31T16:51:23;1.97;;;0.50;;
22894;SDS011;11614;52.494;6.976;2023-03-31T16:56:49;3.77;;;1.00;;
22894;SDS011;11614;52.494;6.976;2023-03-31T16:59:15;2.60;;;0.70;;
22894;SDS011;11614;52.494;6.976;2023-03-31T17:01:41;2.80;;;0.90;;
